createdAt,value
2022-12-26T00:00:41.647Z,963.3
2022-12-26T00:02:41.708Z,963.29
2022-12-26T00:03:41.715Z,963.3
2022-12-26T00:04:48.474Z,963.26
2022-12-26T00:05:41.645Z,963.27
2022-12-26T00:06:41.609Z,963.26
2022-12-26T00:07:41.670Z,963.31
2022-12-26T00:08:41.632Z,963.3
2022-12-26T00:09:41.614Z,963.27
2022-12-26T00:10:41.663Z,963.36
2022-12-26T00:11:41.643Z,963.4
2022-12-26T00:12:41.613Z,963.46
2022-12-26T00:13:41.941Z,963.49
2022-12-26T00:14:41.687Z,963.5
2022-12-26T00:15:41.612Z,963.58
2022-12-26T00:16:41.626Z,963.62
2022-12-26T00:17:41.662Z,963.64
2022-12-26T00:18:41.721Z,963.68
2022-12-26T00:19:41.680Z,963.7
2022-12-26T00:20:41.664Z,963.71
2022-12-26T00:21:41.647Z,963.73
2022-12-26T00:22:41.678Z,963.71
2022-12-26T00:23:41.652Z,963.75
2022-12-26T00:24:41.642Z,963.73
2022-12-26T00:25:41.577Z,963.74
2022-12-26T00:26:41.671Z,963.77
2022-12-26T00:27:41.637Z,963.75
2022-12-26T00:28:41.717Z,963.77
2022-12-26T00:29:41.669Z,963.74
2022-12-26T00:30:41.587Z,963.77
2022-12-26T00:31:41.710Z,963.81
2022-12-26T00:32:41.589Z,963.79
2022-12-26T00:33:41.746Z,963.81
2022-12-26T00:34:41.705Z,963.82
2022-12-26T00:35:41.676Z,963.81
2022-12-26T00:36:41.609Z,963.82
2022-12-26T00:37:41.719Z,963.8
2022-12-26T00:38:41.683Z,963.82
2022-12-26T00:39:43.046Z,963.8
2022-12-26T00:41:41.691Z,963.78
2022-12-26T00:42:41.756Z,963.83
2022-12-26T00:43:41.723Z,963.82
2022-12-26T00:44:41.622Z,963.81
2022-12-26T00:45:43.585Z,963.83
2022-12-26T00:46:41.675Z,963.87
2022-12-26T00:47:41.628Z,963.92
2022-12-26T00:48:41.663Z,963.89
2022-12-26T00:50:11.168Z,963.94
2022-12-26T00:50:41.957Z,963.91
2022-12-26T00:51:41.655Z,963.89
2022-12-26T00:52:41.639Z,963.88
2022-12-26T00:53:41.634Z,963.79
2022-12-26T00:54:41.647Z,963.8
2022-12-26T00:55:41.727Z,963.75
2022-12-26T00:57:41.767Z,963.74
2022-12-26T00:58:41.732Z,963.71
2022-12-26T01:00:41.777Z,963.72
2022-12-26T01:01:41.862Z,963.71
2022-12-26T01:02:41.935Z,963.69
2022-12-26T01:04:41.668Z,963.67
2022-12-26T01:05:42.663Z,963.69
2022-12-26T01:06:41.675Z,963.68
2022-12-26T01:08:20.813Z,963.67
2022-12-26T01:08:42.005Z,963.61
2022-12-26T01:09:41.683Z,963.62
2022-12-26T01:10:41.776Z,963.61
2022-12-26T01:11:41.832Z,963.66
2022-12-26T01:12:41.706Z,963.68
2022-12-26T01:13:41.767Z,963.67
2022-12-26T01:14:41.836Z,963.66
2022-12-26T01:15:41.812Z,963.67
2022-12-26T01:16:41.938Z,963.66
2022-12-26T01:17:41.834Z,963.69
2022-12-26T01:18:41.809Z,963.7
2022-12-26T01:19:41.771Z,963.71
2022-12-26T01:20:41.720Z,963.72
2022-12-26T01:21:41.848Z,963.69
2022-12-26T01:23:42.742Z,963.7
2022-12-26T01:24:41.809Z,963.69
2022-12-26T01:26:14.562Z,963.68
2022-12-26T01:26:41.914Z,963.65
2022-12-26T01:27:41.816Z,963.63
2022-12-26T01:28:41.887Z,963.66
2022-12-26T01:29:41.726Z,963.64
2022-12-26T01:30:41.810Z,963.55
2022-12-26T01:31:41.811Z,963.61
2022-12-26T01:32:41.883Z,963.66
2022-12-26T01:33:41.818Z,963.67
2022-12-26T01:34:41.731Z,963.71
2022-12-26T01:35:41.742Z,963.64
2022-12-26T01:36:41.819Z,963.65
2022-12-26T01:37:41.796Z,963.69
2022-12-26T01:38:41.871Z,963.75
2022-12-26T01:39:41.829Z,963.69
2022-12-26T01:40:41.791Z,963.71
2022-12-26T01:41:41.862Z,963.65
2022-12-26T01:42:41.941Z,963.74
2022-12-26T01:43:41.792Z,963.77
2022-12-26T01:44:41.876Z,963.78
2022-12-26T01:45:42.012Z,963.8
2022-12-26T01:46:41.921Z,963.84
2022-12-26T01:47:41.983Z,963.82
2022-12-26T01:48:41.941Z,963.81
2022-12-26T01:49:42.855Z,963.82
2022-12-26T01:50:41.870Z,963.85
2022-12-26T01:51:41.805Z,963.82
2022-12-26T01:52:41.770Z,963.81
2022-12-26T01:54:42.914Z,963.82
2022-12-26T01:57:42.082Z,963.9
2022-12-26T01:58:41.813Z,963.87
2022-12-26T01:59:41.894Z,963.85
2022-12-26T02:01:41.914Z,963.82
2022-12-26T02:02:41.887Z,963.77
2022-12-26T02:03:45.905Z,963.8
2022-12-26T02:04:41.809Z,963.78
2022-12-26T02:05:41.920Z,963.8
2022-12-26T02:06:41.869Z,963.84
2022-12-26T02:07:41.851Z,963.81
2022-12-26T02:08:41.841Z,963.84
2022-12-26T02:09:43.943Z,963.82
2022-12-26T02:10:41.817Z,963.77
2022-12-26T02:11:41.818Z,963.76
2022-12-26T02:12:42.000Z,963.73
2022-12-26T02:13:41.851Z,963.69
2022-12-26T02:14:41.920Z,963.75
2022-12-26T02:15:41.819Z,963.73
2022-12-26T02:16:41.987Z,963.76
2022-12-26T02:17:41.839Z,963.8
2022-12-26T02:18:42.020Z,963.83
2022-12-26T02:19:41.974Z,963.8
2022-12-26T02:20:41.929Z,963.81
2022-12-26T02:22:41.951Z,963.79
2022-12-26T02:23:41.854Z,963.78
2022-12-26T02:25:41.858Z,963.74
2022-12-26T02:26:41.926Z,963.69
2022-12-26T02:27:41.898Z,963.71
2022-12-26T02:28:41.967Z,963.78
2022-12-26T02:29:41.873Z,963.76
2022-12-26T02:30:41.897Z,963.72
2022-12-26T02:31:41.993Z,963.73
2022-12-26T02:32:42.043Z,963.75
2022-12-26T02:33:42.012Z,963.77
2022-12-26T02:34:41.992Z,963.75
2022-12-26T02:35:41.949Z,963.83
2022-12-26T02:36:42.013Z,963.76
2022-12-26T02:38:41.952Z,963.79
2022-12-26T02:39:43.041Z,963.73
2022-12-26T02:40:41.997Z,963.76
2022-12-26T02:41:41.932Z,963.74
2022-12-26T02:43:42.088Z,963.71
2022-12-26T02:44:42.425Z,963.67
2022-12-26T02:45:42.070Z,963.69
2022-12-26T02:47:42.072Z,963.71
2022-12-26T02:48:41.938Z,963.75
2022-12-26T02:49:42.004Z,963.67
2022-12-26T02:51:41.913Z,963.69
2022-12-26T02:52:41.926Z,963.71
2022-12-26T02:53:42.083Z,963.73
2022-12-26T02:54:41.932Z,963.72
2022-12-26T02:55:42.051Z,963.77
2022-12-26T02:56:41.937Z,963.79
2022-12-26T02:57:42.039Z,963.81
2022-12-26T02:58:42.000Z,963.85
2022-12-26T02:59:54.836Z,963.89
2022-12-26T03:00:42.055Z,963.91
2022-12-26T03:01:42.039Z,963.95
2022-12-26T03:03:42.054Z,963.92
2022-12-26T03:04:42.115Z,963.89
2022-12-26T03:06:42.156Z,963.9
2022-12-26T03:07:42.037Z,963.92
2022-12-26T03:08:41.960Z,963.91
2022-12-26T03:09:42.058Z,963.83
2022-12-26T03:10:42.032Z,963.86
2022-12-26T03:11:41.967Z,963.87
2022-12-26T03:12:41.978Z,963.88
2022-12-26T03:13:42.051Z,963.94
2022-12-26T03:14:41.984Z,963.93
2022-12-26T03:15:42.054Z,963.95
2022-12-26T03:17:41.976Z,964
2022-12-26T03:18:57.377Z,963.99
2022-12-26T03:19:41.983Z,964.03
2022-12-26T03:20:42.105Z,964.04
2022-12-26T03:21:42.070Z,964.03
2022-12-26T03:22:42.010Z,964.02
2022-12-26T03:23:42.105Z,964.01
2022-12-26T03:24:42.086Z,964.06
2022-12-26T03:26:42.257Z,964.09
2022-12-26T03:28:42.198Z,964.07
2022-12-26T03:29:42.150Z,964.12
2022-12-26T03:30:42.112Z,964.04
2022-12-26T03:31:42.054Z,964.07
2022-12-26T03:32:42.117Z,964.05
2022-12-26T03:33:42.086Z,964.08
2022-12-26T03:34:42.027Z,964.06
2022-12-26T03:35:42.127Z,964.03
2022-12-26T03:36:42.097Z,964.07
2022-12-26T03:37:48.103Z,964.1
2022-12-26T03:38:42.134Z,964.05
2022-12-26T03:40:42.048Z,964.01
2022-12-26T03:41:42.139Z,964.05
2022-12-26T03:42:42.051Z,964.02
2022-12-26T03:43:42.080Z,964.09
2022-12-26T03:44:42.037Z,964.08
2022-12-26T03:45:42.080Z,964.07
2022-12-26T03:46:42.098Z,964.06
2022-12-26T03:47:42.153Z,964.04
2022-12-26T03:49:42.046Z,964.09
2022-12-26T03:50:42.141Z,964.08
2022-12-26T03:51:42.214Z,964.07
2022-12-26T03:52:42.097Z,964.06
2022-12-26T03:53:42.148Z,964.04
2022-12-26T03:54:42.072Z,964.02
2022-12-26T03:55:42.174Z,964.06
2022-12-26T03:56:42.252Z,964.03
2022-12-26T03:58:42.085Z,964.07
2022-12-26T03:59:42.080Z,964.04
2022-12-26T04:00:42.236Z,964.05
2022-12-26T04:01:42.247Z,964.01
2022-12-26T04:03:42.288Z,964.03
2022-12-26T04:05:42.122Z,964.08
2022-12-26T04:06:42.239Z,964.11
2022-12-26T04:08:42.193Z,964.09
2022-12-26T04:09:42.110Z,964.18
2022-12-26T04:11:42.123Z,964.17
2022-12-26T04:12:42.243Z,964.15
2022-12-26T04:13:42.111Z,964.18
2022-12-26T04:14:42.171Z,964.23
2022-12-26T04:15:42.138Z,964.22
2022-12-26T04:16:42.126Z,964.19
2022-12-26T04:17:42.186Z,964.2
2022-12-26T04:18:42.136Z,964.19
2022-12-26T04:19:42.135Z,964.28
2022-12-26T04:20:42.146Z,964.36
2022-12-26T04:21:42.257Z,964.3
2022-12-26T04:22:42.128Z,964.27
2022-12-26T04:24:42.126Z,964.13
2022-12-26T04:25:49.287Z,964.08
2022-12-26T04:26:42.325Z,964.06
2022-12-26T04:27:42.139Z,964.02
2022-12-26T04:28:42.238Z,964.03
2022-12-26T04:29:42.169Z,964
2022-12-26T04:30:42.272Z,964.03
2022-12-26T04:31:42.258Z,964.02
2022-12-26T04:32:42.307Z,963.99
2022-12-26T04:33:42.275Z,964
2022-12-26T04:34:42.230Z,964.02
2022-12-26T04:35:43.609Z,964
2022-12-26T04:36:42.265Z,964.05
2022-12-26T04:38:42.170Z,964.02
2022-12-26T04:39:42.271Z,963.99
2022-12-26T04:40:42.245Z,963.98
2022-12-26T04:41:42.302Z,964.01
2022-12-26T04:42:42.279Z,963.96
2022-12-26T04:43:47.838Z,963.99
2022-12-26T04:45:42.280Z,963.98
2022-12-26T04:46:42.397Z,963.95
2022-12-26T04:47:42.207Z,963.98
2022-12-26T04:48:42.293Z,963.95
2022-12-26T04:50:42.288Z,963.88
2022-12-26T04:51:42.301Z,963.94
2022-12-26T04:52:42.370Z,963.95
2022-12-26T04:54:42.290Z,963.84
2022-12-26T04:55:42.214Z,963.85
2022-12-26T04:56:42.219Z,963.76
2022-12-26T04:57:42.220Z,963.79
2022-12-26T04:58:42.220Z,963.72
2022-12-26T04:59:42.240Z,963.71
2022-12-26T05:00:42.336Z,963.7
2022-12-26T05:01:42.453Z,963.72
2022-12-26T05:03:42.412Z,963.75
2022-12-26T05:04:42.239Z,963.72
2022-12-26T05:05:42.233Z,963.71
2022-12-26T05:06:42.312Z,963.72
2022-12-26T05:07:43.605Z,963.68
2022-12-26T05:08:42.350Z,963.69
2022-12-26T05:09:42.322Z,963.65
2022-12-26T05:10:42.250Z,963.64
2022-12-26T05:12:42.321Z,963.7
2022-12-26T05:13:43.281Z,963.74
2022-12-26T05:14:42.244Z,963.76
2022-12-26T05:15:42.382Z,963.84
2022-12-26T05:16:42.397Z,963.9
2022-12-26T05:17:42.263Z,963.94
2022-12-26T05:18:42.261Z,963.95
2022-12-26T05:21:42.344Z,963.97
2022-12-26T05:22:42.401Z,963.92
2022-12-26T05:23:42.281Z,963.89
2022-12-26T05:25:42.417Z,963.88
2022-12-26T05:28:42.417Z,963.92
2022-12-26T05:29:42.398Z,963.93
2022-12-26T05:30:42.288Z,963.91
2022-12-26T05:31:42.336Z,963.92
2022-12-26T05:33:42.346Z,963.93
2022-12-26T05:34:42.305Z,963.92
2022-12-26T05:35:42.394Z,963.9
2022-12-26T05:36:42.323Z,963.91
2022-12-26T05:37:42.432Z,963.87
2022-12-26T05:38:42.308Z,963.89
2022-12-26T05:39:43.387Z,963.85
2022-12-26T05:41:42.394Z,963.87
2022-12-26T05:42:42.460Z,963.86
2022-12-26T05:43:42.328Z,963.84
2022-12-26T05:44:42.387Z,963.88
2022-12-26T05:45:42.335Z,963.91
2022-12-26T05:46:42.530Z,963.9
2022-12-26T05:47:44.737Z,963.94
2022-12-26T05:48:42.473Z,963.91
2022-12-26T05:49:42.432Z,963.88
2022-12-26T05:50:42.401Z,963.91
2022-12-26T05:51:42.371Z,963.89
2022-12-26T05:52:42.337Z,963.85
2022-12-26T05:53:42.359Z,963.87
2022-12-26T05:54:42.483Z,963.89
2022-12-26T05:55:42.451Z,963.9
2022-12-26T05:56:47.516Z,963.91
2022-12-26T05:58:42.542Z,963.89
2022-12-26T05:59:42.533Z,963.94
2022-12-26T06:00:42.367Z,963.99
2022-12-26T06:01:42.547Z,963.97
2022-12-26T06:02:42.446Z,963.96
2022-12-26T06:03:42.413Z,963.98
2022-12-26T06:04:42.363Z,963.97
2022-12-26T06:05:42.386Z,964
2022-12-26T06:07:42.452Z,963.96
2022-12-26T06:08:43.554Z,963.97
2022-12-26T06:09:42.501Z,963.95
2022-12-26T06:10:42.460Z,963.91
2022-12-26T06:12:42.514Z,963.92
2022-12-26T06:13:42.394Z,963.94
2022-12-26T06:14:42.532Z,963.92
2022-12-26T06:15:42.408Z,963.85
2022-12-26T06:16:42.498Z,963.87
2022-12-26T06:18:42.475Z,963.89
2022-12-26T06:19:46.623Z,963.92
2022-12-26T06:20:42.412Z,963.91
2022-12-26T06:21:42.538Z,963.86
2022-12-26T06:23:42.581Z,963.83
2022-12-26T06:24:42.412Z,963.85
2022-12-26T06:25:42.492Z,963.82
2022-12-26T06:26:42.463Z,963.86
2022-12-26T06:27:42.520Z,963.8
2022-12-26T06:28:42.499Z,963.82
2022-12-26T06:29:42.548Z,963.81
2022-12-26T06:30:42.450Z,963.82
2022-12-26T06:31:42.617Z,963.76
2022-12-26T06:32:42.571Z,963.75
2022-12-26T06:33:42.531Z,963.76
2022-12-26T06:34:42.613Z,963.75
2022-12-26T06:35:42.453Z,963.76
2022-12-26T06:36:42.449Z,963.78
2022-12-26T06:37:42.450Z,963.75
2022-12-26T06:38:42.561Z,963.76
2022-12-26T06:39:42.446Z,963.73
2022-12-26T06:41:42.566Z,963.75
2022-12-26T06:42:43.708Z,963.72
2022-12-26T06:43:42.474Z,963.69
2022-12-26T06:44:42.467Z,963.71
2022-12-26T06:45:42.547Z,963.73
2022-12-26T06:47:42.515Z,963.66
2022-12-26T06:48:42.490Z,963.69
2022-12-26T06:49:42.609Z,963.67
2022-12-26T06:51:42.554Z,963.63
2022-12-26T06:52:42.618Z,963.65
2022-12-26T06:53:42.595Z,963.62
2022-12-26T06:56:42.495Z,963.61
2022-12-26T06:57:42.545Z,963.6
2022-12-26T06:58:42.508Z,963.61
2022-12-26T06:59:42.593Z,963.62
2022-12-26T07:00:42.590Z,963.59
2022-12-26T07:01:42.676Z,963.6
2022-12-26T07:02:42.753Z,963.57
2022-12-26T07:03:48.709Z,963.58
2022-12-26T07:04:42.679Z,963.53
2022-12-26T07:06:42.570Z,963.57
2022-12-26T07:08:42.514Z,963.55
2022-12-26T07:09:42.574Z,963.57
2022-12-26T07:10:42.643Z,963.53
2022-12-26T07:11:42.603Z,963.5
2022-12-26T07:12:42.515Z,963.52
2022-12-26T07:13:42.642Z,963.53
2022-12-26T07:14:42.606Z,963.5
2022-12-26T07:15:42.685Z,963.54
2022-12-26T07:17:42.614Z,963.53
2022-12-26T07:18:42.695Z,963.57
2022-12-26T07:19:42.654Z,963.64
2022-12-26T07:20:42.614Z,963.67
2022-12-26T07:21:42.705Z,963.68
2022-12-26T07:22:42.650Z,963.67
2022-12-26T07:23:42.622Z,963.66
2022-12-26T07:24:42.551Z,963.63
2022-12-26T07:25:42.552Z,963.6
2022-12-26T07:26:42.559Z,963.57
2022-12-26T07:27:42.699Z,963.52
2022-12-26T07:28:42.672Z,963.51
2022-12-26T07:29:42.557Z,963.46
2022-12-26T07:30:42.568Z,963.47
2022-12-26T07:31:42.704Z,963.49
2022-12-26T07:32:42.574Z,963.47
2022-12-26T07:33:42.578Z,963.5
2022-12-26T07:34:42.599Z,963.55
2022-12-26T07:35:42.748Z,963.56
2022-12-26T07:36:42.608Z,963.59
2022-12-26T07:37:42.679Z,963.56
2022-12-26T07:38:42.585Z,963.53
2022-12-26T07:39:42.585Z,963.57
2022-12-26T07:41:44.524Z,963.58
2022-12-26T07:42:42.715Z,963.57
2022-12-26T07:43:42.681Z,963.51
2022-12-26T07:44:42.754Z,963.53
2022-12-26T07:45:45.765Z,963.52
2022-12-26T07:46:42.700Z,963.5
2022-12-26T07:47:42.613Z,963.54
2022-12-26T07:48:42.729Z,963.62
2022-12-26T07:49:42.694Z,963.58
2022-12-26T07:50:42.755Z,963.61
2022-12-26T07:51:42.739Z,963.62
2022-12-26T07:52:42.722Z,963.67
2022-12-26T07:53:42.663Z,963.69
2022-12-26T07:54:42.632Z,963.73
2022-12-26T07:55:42.706Z,963.72
2022-12-26T07:56:42.636Z,963.73
2022-12-26T07:58:42.805Z,963.75
2022-12-26T07:59:42.647Z,963.78
2022-12-26T08:01:42.940Z,963.79
2022-12-26T08:02:42.994Z,963.81
2022-12-26T08:04:42.716Z,963.77
2022-12-26T08:05:42.798Z,963.82
2022-12-26T08:07:42.706Z,963.8
2022-12-26T08:09:42.792Z,963.83
2022-12-26T08:11:42.673Z,963.79
2022-12-26T08:12:42.780Z,963.8
2022-12-26T08:13:42.660Z,963.83
2022-12-26T08:14:42.675Z,963.82
2022-12-26T08:15:42.761Z,963.86
2022-12-26T08:16:44.524Z,963.87
2022-12-26T08:17:42.670Z,963.82
2022-12-26T08:19:42.835Z,963.8
2022-12-26T08:20:42.800Z,963.83
2022-12-26T08:22:42.827Z,963.84
2022-12-26T08:23:42.811Z,963.85
2022-12-26T08:24:42.767Z,963.87
2022-12-26T08:25:42.691Z,963.88
2022-12-26T08:26:42.804Z,963.87
2022-12-26T08:27:42.772Z,963.88
2022-12-26T08:28:42.702Z,963.89
2022-12-26T08:29:42.810Z,963.91
2022-12-26T08:31:46.921Z,963.88
2022-12-26T08:32:44.306Z,963.9
2022-12-26T08:33:42.716Z,963.91
2022-12-26T08:35:42.717Z,963.89
2022-12-26T08:36:42.787Z,963.92
2022-12-26T08:37:44.161Z,963.91
2022-12-26T08:38:42.822Z,963.9
2022-12-26T08:39:42.794Z,963.89
2022-12-26T08:40:43.823Z,963.87
2022-12-26T08:41:42.834Z,963.85
2022-12-26T08:42:56.085Z,963.88
2022-12-26T08:44:24.739Z,963.9
2022-12-26T08:44:42.850Z,963.91
2022-12-26T08:45:42.932Z,963.93
2022-12-26T08:46:42.753Z,963.95
2022-12-26T08:47:42.750Z,963.88
2022-12-26T08:48:42.916Z,963.91
2022-12-26T08:49:42.755Z,963.87
2022-12-26T08:50:42.843Z,963.89
2022-12-26T08:51:42.753Z,963.91
2022-12-26T08:52:42.871Z,963.94
2022-12-26T08:53:42.843Z,963.92
2022-12-26T08:54:42.920Z,963.89
2022-12-26T08:55:42.882Z,963.93
2022-12-26T08:56:42.776Z,963.9
2022-12-26T08:57:42.766Z,963.91
2022-12-26T08:58:42.805Z,963.96
2022-12-26T08:59:42.774Z,963.97
2022-12-26T09:00:42.778Z,963.98
2022-12-26T09:01:42.888Z,963.95
2022-12-26T09:02:42.945Z,964
2022-12-26T09:04:42.877Z,963.96
2022-12-26T09:05:42.863Z,963.99
2022-12-26T09:06:43.960Z,964
2022-12-26T09:07:42.896Z,963.97
2022-12-26T09:08:42.869Z,963.99
2022-12-26T09:10:42.970Z,964.02
2022-12-26T09:11:42.883Z,964.1
2022-12-26T09:12:42.797Z,964.06
2022-12-26T09:13:42.914Z,964.03
2022-12-26T09:14:42.804Z,964.02
2022-12-26T09:15:42.803Z,964.04
2022-12-26T09:17:42.816Z,964.05
2022-12-26T09:18:42.950Z,964.04
2022-12-26T09:19:42.912Z,964.07
2022-12-26T09:20:42.988Z,964.05
2022-12-26T09:21:42.950Z,964.03
2022-12-26T09:22:42.933Z,964.09
2022-12-26T09:23:42.988Z,964.08
2022-12-26T09:24:43.069Z,964.06
2022-12-26T09:25:42.913Z,964.07
2022-12-26T09:26:44.080Z,964.06
2022-12-26T09:27:42.964Z,964.1
2022-12-26T09:28:42.919Z,964.12
2022-12-26T09:29:42.984Z,964.07
2022-12-26T09:30:42.976Z,964.12
2022-12-26T09:31:42.945Z,964.16
2022-12-26T09:32:42.843Z,964.21
2022-12-26T09:33:42.976Z,964.22
2022-12-26T09:34:42.935Z,964.2
2022-12-26T09:35:42.998Z,964.21
2022-12-26T09:37:42.979Z,964.22
2022-12-26T09:38:44.136Z,964.23
2022-12-26T09:39:42.971Z,964.24
2022-12-26T09:40:42.875Z,964.25
2022-12-26T09:41:42.872Z,964.28
2022-12-26T09:42:42.976Z,964.32
2022-12-26T09:43:46.739Z,964.25
2022-12-26T09:44:43.212Z,964.32
2022-12-26T09:46:42.947Z,964.29
2022-12-26T09:47:42.897Z,964.33
2022-12-26T09:48:43.006Z,964.37
2022-12-26T09:49:42.917Z,964.39
2022-12-26T09:51:42.987Z,964.4
2022-12-26T09:53:42.908Z,964.43
2022-12-26T09:54:42.990Z,964.48
2022-12-26T09:55:44.600Z,964.49
2022-12-26T09:57:03.574Z,964.52
2022-12-26T09:57:43.106Z,964.51
2022-12-26T09:58:44.241Z,964.52
2022-12-26T09:59:43.029Z,964.57
2022-12-26T10:01:42.998Z,964.61
2022-12-26T10:02:43.082Z,964.59
2022-12-26T10:03:42.920Z,964.56
2022-12-26T10:04:43.115Z,964.55
2022-12-26T10:05:43.032Z,964.57
2022-12-26T10:06:43.015Z,964.62
2022-12-26T10:07:42.942Z,964.57
2022-12-26T10:08:43.054Z,964.58
2022-12-26T10:09:43.008Z,964.61
2022-12-26T10:10:43.077Z,964.6
2022-12-26T10:11:43.056Z,964.62
2022-12-26T10:12:43.025Z,964.69
2022-12-26T10:13:44.318Z,964.72
2022-12-26T10:14:43.050Z,964.75
2022-12-26T10:15:42.962Z,964.76
2022-12-26T10:18:43.236Z,964.77
2022-12-26T10:19:43.004Z,964.81
2022-12-26T10:20:43.057Z,964.78
2022-12-26T10:21:43.132Z,964.81
2022-12-26T10:22:43.099Z,964.82
2022-12-26T10:23:43.065Z,964.77
2022-12-26T10:24:42.974Z,964.78
2022-12-26T10:25:42.985Z,964.72
2022-12-26T10:26:42.995Z,964.7
2022-12-26T10:27:44.437Z,964.67
2022-12-26T10:29:43.001Z,964.65
2022-12-26T10:30:43.022Z,964.67
2022-12-26T10:31:43.107Z,964.64
2022-12-26T10:32:43.077Z,964.67
2022-12-26T10:33:43.148Z,964.69
2022-12-26T10:34:43.005Z,964.68
2022-12-26T10:35:43.098Z,964.69
2022-12-26T10:36:43.161Z,964.72
2022-12-26T10:39:43.020Z,964.76
2022-12-26T10:41:43.017Z,964.77
2022-12-26T10:42:43.017Z,964.78
2022-12-26T10:45:43.083Z,964.84
2022-12-26T10:46:43.158Z,964.83
2022-12-26T10:47:43.026Z,964.81
2022-12-26T10:48:43.165Z,964.83
2022-12-26T10:49:43.146Z,964.84
2022-12-26T10:50:43.218Z,964.9
2022-12-26T10:51:43.079Z,964.92
2022-12-26T10:54:43.196Z,964.89
2022-12-26T10:55:43.313Z,964.92
2022-12-26T10:56:43.062Z,964.95
2022-12-26T10:58:43.155Z,964.97
2022-12-26T10:59:43.294Z,964.99
2022-12-26T11:00:43.187Z,965.04
2022-12-26T11:02:43.165Z,965.05
2022-12-26T11:06:06.809Z,965.06
2022-12-26T11:06:43.334Z,965.1
2022-12-26T11:07:43.164Z,965.12
2022-12-26T11:08:44.165Z,965.16
2022-12-26T11:09:43.154Z,965.22
2022-12-26T11:10:43.166Z,965.24
2022-12-26T11:11:43.244Z,965.26
2022-12-26T11:13:43.100Z,965.24
2022-12-26T11:14:43.399Z,965.22
2022-12-26T11:15:43.122Z,965.24
2022-12-26T11:16:43.131Z,965.25
2022-12-26T11:17:43.123Z,965.26
2022-12-26T11:18:43.108Z,965.23
2022-12-26T11:19:43.177Z,965.22
2022-12-26T11:20:43.294Z,965.25
2022-12-26T11:21:43.140Z,965.26
2022-12-26T11:22:43.314Z,965.27
2022-12-26T11:23:43.137Z,965.26
2022-12-26T11:24:43.132Z,965.3
2022-12-26T11:26:43.125Z,965.28
2022-12-26T11:27:43.324Z,965.24
2022-12-26T11:28:43.299Z,965.28
2022-12-26T11:29:43.143Z,965.26
2022-12-26T11:30:43.226Z,965.3
2022-12-26T11:31:43.177Z,965.36
2022-12-26T11:32:43.298Z,965.35
2022-12-26T11:33:43.236Z,965.31
2022-12-26T11:34:43.302Z,965.3
2022-12-26T11:35:43.297Z,965.27
2022-12-26T11:36:43.237Z,965.24
2022-12-26T11:37:43.168Z,965.22
2022-12-26T11:38:45.341Z,965.19
2022-12-26T11:40:43.373Z,965.16
2022-12-26T11:41:43.407Z,965.09
2022-12-26T11:42:43.260Z,965.2
2022-12-26T11:44:43.280Z,965.15
2022-12-26T11:45:43.242Z,965.18
2022-12-26T11:46:43.284Z,965.2
2022-12-26T11:47:43.185Z,965.27
2022-12-26T11:48:43.257Z,965.26
2022-12-26T11:49:43.193Z,965.29
2022-12-26T11:50:43.301Z,965.3
2022-12-26T11:51:43.208Z,965.34
2022-12-26T11:52:43.185Z,965.38
2022-12-26T11:53:43.186Z,965.35
2022-12-26T11:54:43.264Z,965.37
2022-12-26T11:56:43.298Z,965.34
2022-12-26T11:57:43.377Z,965.36
2022-12-26T11:58:43.338Z,965.38
2022-12-26T11:59:43.227Z,965.37
2022-12-26T12:00:44.385Z,965.36
2022-12-26T12:01:43.268Z,965.38
2022-12-26T12:02:43.420Z,965.36
2022-12-26T12:03:48.787Z,965.35
2022-12-26T12:04:43.342Z,965.3
2022-12-26T12:05:43.228Z,965.36
2022-12-26T12:06:43.237Z,965.33
2022-12-26T12:07:43.349Z,965.3
2022-12-26T12:08:43.310Z,965.29
2022-12-26T12:09:43.383Z,965.25
2022-12-26T12:10:43.234Z,965.27
2022-12-26T12:13:43.445Z,965.29
2022-12-26T12:14:43.280Z,965.28
2022-12-26T12:15:43.247Z,965.3
2022-12-26T12:16:43.387Z,965.33
2022-12-26T12:17:43.261Z,965.35
2022-12-26T12:19:43.359Z,965.41
2022-12-26T12:20:46.283Z,965.42
2022-12-26T12:21:43.289Z,965.41
2022-12-26T12:22:43.281Z,965.45
2022-12-26T12:23:43.284Z,965.43
2022-12-26T12:24:43.401Z,965.41
2022-12-26T12:29:43.540Z,965.42
2022-12-26T12:30:43.431Z,965.35
2022-12-26T12:32:43.343Z,965.37
2022-12-26T12:33:43.328Z,965.38
2022-12-26T12:34:43.387Z,965.37
2022-12-26T12:35:43.299Z,965.38
2022-12-26T12:36:43.304Z,965.42
2022-12-26T12:37:43.385Z,965.38
2022-12-26T12:38:43.465Z,965.37
2022-12-26T12:39:43.427Z,965.4
2022-12-26T12:40:43.332Z,965.37
2022-12-26T12:41:43.475Z,965.39
2022-12-26T12:42:43.429Z,965.41
2022-12-26T12:43:43.327Z,965.38
2022-12-26T12:44:43.360Z,965.39
2022-12-26T12:45:43.527Z,965.37
2022-12-26T12:46:43.402Z,965.42
2022-12-26T12:47:44.639Z,965.4
2022-12-26T12:48:43.324Z,965.37
2022-12-26T12:49:43.337Z,965.39
2022-12-26T12:50:43.482Z,965.36
2022-12-26T12:51:43.321Z,965.35
2022-12-26T12:52:43.341Z,965.3
2022-12-26T12:53:43.333Z,965.38
2022-12-26T12:54:43.446Z,965.36
2022-12-26T12:55:43.345Z,965.37
2022-12-26T12:56:43.494Z,965.34
2022-12-26T12:58:43.410Z,965.33
2022-12-26T13:00:43.543Z,965.37
2022-12-26T13:01:43.488Z,965.33
2022-12-26T13:02:43.420Z,965.3
2022-12-26T13:03:43.462Z,965.29
2022-12-26T13:04:43.550Z,965.33
2022-12-26T13:05:43.494Z,965.32
2022-12-26T13:06:43.458Z,965.37
2022-12-26T13:07:47.294Z,965.35
2022-12-26T13:08:43.722Z,965.37
2022-12-26T13:09:43.466Z,965.36
2022-12-26T13:10:44.752Z,965.39
2022-12-26T13:11:43.414Z,965.37
2022-12-26T13:12:43.379Z,965.35
2022-12-26T13:13:45.343Z,965.37
2022-12-26T13:14:43.639Z,965.36
2022-12-26T13:15:43.407Z,965.31
2022-12-26T13:16:43.705Z,965.34
2022-12-26T13:19:46.274Z,965.28
2022-12-26T13:21:43.406Z,965.25
2022-12-26T13:22:43.552Z,965.27
2022-12-26T13:23:43.404Z,965.24
2022-12-26T13:24:43.408Z,965.32
2022-12-26T13:25:43.572Z,965.31
2022-12-26T13:26:43.424Z,965.34
2022-12-26T13:27:43.496Z,965.36
2022-12-26T13:28:44.838Z,965.35
2022-12-26T13:29:43.426Z,965.34
2022-12-26T13:30:43.499Z,965.35
2022-12-26T13:31:43.626Z,965.4
2022-12-26T13:32:46.551Z,965.36
2022-12-26T13:33:43.495Z,965.29
2022-12-26T13:34:43.435Z,965.25
2022-12-26T13:35:43.435Z,965.2
2022-12-26T13:36:43.499Z,965.12
2022-12-26T13:37:43.562Z,965.15
2022-12-26T13:38:45.046Z,965.18
2022-12-26T13:41:43.603Z,965.13
2022-12-26T13:42:43.473Z,965.15
2022-12-26T13:43:43.582Z,965.19
2022-12-26T13:45:43.655Z,965.16
2022-12-26T13:46:43.584Z,965.17
2022-12-26T13:47:43.479Z,965.12
2022-12-26T13:49:43.587Z,965.1
2022-12-26T13:50:43.990Z,965.04
2022-12-26T13:51:43.695Z,965.06
2022-12-26T13:52:43.595Z,965.08
2022-12-26T13:53:43.551Z,965.09
2022-12-26T13:54:43.522Z,965.12
2022-12-26T13:55:43.605Z,965.1
2022-12-26T13:56:45.982Z,965.13
2022-12-26T13:57:44.477Z,965.15
2022-12-26T13:58:43.614Z,965.16
2022-12-26T13:59:43.522Z,965.15
2022-12-26T14:00:43.647Z,965.12
2022-12-26T14:01:43.738Z,965.13
2022-12-26T14:03:15.756Z,965.16
2022-12-26T14:04:43.903Z,965.17
2022-12-26T14:05:43.684Z,965.18
2022-12-26T14:06:43.526Z,965.16
2022-12-26T14:07:43.510Z,965.21
2022-12-26T14:09:43.782Z,965.19
2022-12-26T14:10:43.630Z,965.2
2022-12-26T14:11:43.694Z,965.24
2022-12-26T14:12:43.551Z,965.31
2022-12-26T14:14:43.534Z,965.3
2022-12-26T14:15:43.572Z,965.33
2022-12-26T14:16:43.644Z,965.31
2022-12-26T14:17:43.694Z,965.23
2022-12-26T14:18:43.657Z,965.3
2022-12-26T14:19:43.628Z,965.32
2022-12-26T14:20:43.609Z,965.33
2022-12-26T14:21:43.666Z,965.34
2022-12-26T14:22:43.555Z,965.33
2022-12-26T14:23:43.607Z,965.38
2022-12-26T14:24:43.701Z,965.36